createdAt,value
2019-05-26T00:01:43.440Z,7.00
2019-05-26T00:04:13.372Z,8.53
2019-05-26T00:06:43.775Z,9.83
2019-05-26T00:09:13.843Z,12.18
2019-05-26T00:11:44.012Z,8.75
2019-05-26T00:14:14.223Z,6.62
2019-05-26T00:16:44.386Z,10.23
2019-05-26T00:19:14.462Z,7.35
2019-05-26T00:21:44.303Z,8.95
2019-05-26T00:24:14.488Z,9.50
2019-05-26T00:26:44.782Z,14.90
2019-05-26T00:29:14.812Z,10.53
2019-05-26T00:31:45.100Z,9.20
2019-05-26T00:34:15.375Z,7.55
2019-05-26T00:36:45.600Z,7.97
2019-05-26T00:39:15.567Z,7.35
2019-05-26T00:41:45.908Z,8.93
2019-05-26T00:44:16.232Z,7.25
2019-05-26T00:46:46.479Z,9.83
2019-05-26T00:49:16.747Z,9.08
2019-05-26T00:51:46.726Z,9.15
2019-05-26T00:54:16.949Z,6.60
2019-05-26T00:56:47.235Z,9.35
2019-05-26T00:59:17.797Z,5.37
2019-05-26T01:01:47.932Z,9.65
2019-05-26T01:04:17.824Z,8.23
2019-05-26T01:06:48.111Z,8.48
2019-05-26T01:09:18.271Z,6.78
2019-05-26T01:11:48.498Z,6.78
2019-05-26T01:14:18.461Z,7.40
2019-05-26T01:16:48.653Z,8.93
2019-05-26T01:19:18.767Z,7.78
2019-05-26T01:21:48.747Z,9.58
2019-05-26T01:24:19.981Z,5.83
2019-05-26T01:26:50.211Z,7.72
2019-05-26T01:29:20.451Z,6.08
2019-05-26T01:31:50.612Z,8.75
2019-05-26T01:34:20.592Z,9.45
2019-05-26T01:36:50.681Z,11.28
2019-05-26T01:39:20.863Z,8.88
2019-05-26T01:41:51.082Z,10.43
2019-05-26T01:44:21.311Z,6.17
2019-05-26T01:46:51.145Z,7.70
2019-05-26T01:49:21.270Z,10.00
2019-05-26T01:51:51.131Z,9.00
2019-05-26T01:54:21.325Z,7.97
2019-05-26T01:56:51.522Z,6.08
2019-05-26T01:59:21.349Z,9.50
2019-05-26T02:01:52.575Z,7.75
2019-05-26T02:04:22.398Z,7.33
2019-05-26T02:06:52.330Z,7.58
2019-05-26T02:09:22.147Z,7.50
2019-05-26T02:11:52.101Z,6.00
2019-05-26T02:14:22.212Z,7.65
2019-05-26T02:16:52.352Z,10.00
2019-05-26T02:19:22.598Z,8.80
2019-05-26T02:21:52.756Z,13.80
2019-05-26T02:24:22.625Z,8.75
2019-05-26T02:26:52.741Z,6.75
2019-05-26T02:29:22.902Z,7.00
2019-05-26T02:31:53.064Z,6.55
2019-05-26T02:34:23.001Z,6.67
2019-05-26T02:36:53.180Z,10.50
2019-05-26T02:39:23.121Z,7.92
2019-05-26T02:41:53.014Z,12.28
2019-05-26T02:44:23.227Z,9.78
2019-05-26T02:46:53.337Z,7.45
2019-05-26T02:49:23.508Z,7.80
2019-05-26T02:51:53.615Z,10.28
2019-05-26T02:54:23.860Z,6.62
2019-05-26T02:56:54.159Z,7.83
2019-05-26T02:59:24.063Z,8.53
2019-05-26T03:02:03.134Z,7.17
2019-05-26T03:04:26.344Z,7.97
2019-05-26T03:06:58.508Z,8.63
2019-05-26T03:09:30.901Z,9.48
2019-05-26T03:12:03.141Z,10.28
2019-05-26T03:14:35.199Z,6.97
2019-05-26T03:17:05.611Z,10.53
2019-05-26T03:19:35.906Z,6.33
2019-05-26T03:22:07.862Z,7.15
2019-05-26T03:24:41.157Z,10.07
2019-05-26T03:27:11.301Z,7.75
2019-05-26T03:29:41.179Z,7.37
2019-05-26T03:32:11.435Z,7.17
2019-05-26T03:34:41.689Z,5.37
2019-05-26T03:37:11.864Z,5.55
2019-05-26T03:39:45.129Z,9.05
2019-05-26T03:42:13.654Z,6.03
2019-05-26T03:44:43.849Z,6.25
2019-05-26T03:47:16.862Z,8.73
2019-05-26T03:49:45.679Z,11.93
2019-05-26T03:52:15.817Z,6.78
2019-05-26T03:54:45.724Z,7.90
2019-05-26T03:57:15.843Z,8.23
2019-05-26T03:59:45.676Z,7.75
2019-05-26T04:02:16.774Z,6.30
2019-05-26T04:04:47.318Z,6.70
2019-05-26T04:07:18.476Z,9.25
2019-05-26T04:10:03.949Z,10.63
2019-05-26T04:12:20.322Z,8.68
2019-05-26T04:14:50.510Z,7.90
2019-05-26T04:17:20.623Z,6.87
2019-05-26T04:19:50.788Z,9.88
2019-05-26T04:22:21.003Z,10.13
2019-05-26T04:24:51.128Z,9.40
2019-05-26T04:27:21.256Z,7.17
2019-05-26T04:29:51.136Z,8.15
2019-05-26T04:32:21.361Z,8.40
2019-05-26T04:34:51.280Z,8.38
2019-05-26T04:37:21.489Z,6.55
2019-05-26T04:39:51.672Z,7.12
2019-05-26T04:42:21.808Z,9.95
2019-05-26T04:44:53.016Z,8.40
2019-05-26T04:47:23.275Z,7.95
2019-05-26T04:49:53.371Z,8.43
2019-05-26T04:52:23.567Z,9.20
2019-05-26T04:54:53.655Z,7.70
2019-05-26T04:57:23.789Z,10.10
2019-05-26T04:59:53.950Z,9.20
2019-05-26T05:02:24.079Z,6.67
2019-05-26T05:04:54.263Z,7.55
2019-05-26T05:07:28.041Z,10.08
2019-05-26T05:09:56.200Z,8.80
2019-05-26T05:12:26.053Z,7.12
2019-05-26T05:14:55.884Z,9.70
2019-05-26T05:17:26.063Z,10.08
2019-05-26T05:20:04.802Z,8.40
2019-05-26T05:22:35.105Z,10.00
2019-05-26T05:25:14.108Z,7.33
2019-05-26T05:27:39.988Z,12.50
2019-05-26T05:30:10.776Z,8.38
2019-05-26T05:32:43.912Z,7.17
2019-05-26T05:35:16.095Z,8.13
2019-05-26T05:37:45.977Z,7.62
2019-05-26T05:40:18.001Z,7.87
2019-05-26T05:42:48.219Z,7.07
2019-05-26T05:45:18.311Z,9.93
2019-05-26T05:47:48.479Z,8.80
2019-05-26T05:50:20.201Z,6.60
2019-05-26T05:52:50.327Z,8.40
2019-05-26T05:55:21.118Z,8.85
2019-05-26T05:57:52.420Z,11.73
2019-05-26T06:00:22.838Z,9.53
2019-05-26T06:02:53.065Z,9.95
2019-05-26T06:05:23.186Z,8.30
2019-05-26T06:07:53.339Z,7.58
2019-05-26T06:10:23.812Z,11.20
2019-05-26T06:12:53.971Z,11.18
2019-05-26T06:15:24.366Z,10.05
2019-05-26T06:17:54.410Z,8.63
2019-05-26T06:20:24.437Z,10.03
2019-05-26T06:22:54.689Z,9.73
2019-05-26T06:25:24.927Z,9.60
2019-05-26T06:27:54.900Z,10.25
2019-05-26T06:30:25.290Z,8.38
2019-05-26T06:32:56.389Z,12.03
2019-05-26T06:35:26.510Z,9.23
2019-05-26T06:37:56.642Z,11.65
2019-05-26T06:40:26.767Z,9.88
2019-05-26T06:42:56.967Z,9.30
2019-05-26T06:45:27.213Z,9.73
2019-05-26T06:47:57.311Z,12.18
2019-05-26T06:50:27.544Z,8.85
2019-05-26T06:52:57.792Z,10.10
2019-05-26T06:55:27.955Z,9.58
2019-05-26T06:57:58.175Z,9.20
2019-05-26T07:00:28.187Z,9.85
2019-05-26T07:02:58.178Z,10.32
2019-05-26T07:05:28.480Z,8.88
2019-05-26T07:07:58.788Z,10.10
2019-05-26T07:10:28.760Z,10.03
2019-05-26T07:12:59.069Z,11.65
2019-05-26T07:15:29.231Z,10.68
2019-05-26T07:17:59.172Z,8.78
2019-05-26T07:20:29.203Z,11.28
2019-05-26T07:22:59.443Z,13.18
2019-05-26T07:25:29.560Z,15.18
2019-05-26T07:27:59.552Z,11.03
2019-05-26T07:30:29.789Z,9.95
2019-05-26T07:33:00.218Z,8.65
2019-05-26T07:35:32.922Z,10.63
2019-05-26T07:38:02.104Z,8.70
2019-05-26T07:40:32.018Z,8.13
2019-05-26T07:43:02.842Z,7.53
2019-05-26T07:45:32.986Z,7.37
2019-05-26T07:48:03.290Z,9.33
2019-05-26T07:50:33.487Z,10.23
2019-05-26T07:53:03.763Z,8.03
2019-05-26T07:55:33.931Z,10.30
2019-05-26T07:58:04.379Z,8.08
2019-05-26T08:00:34.642Z,8.98
2019-05-26T08:03:04.874Z,9.20
2019-05-26T08:05:35.714Z,8.55
2019-05-26T08:08:12.776Z,10.23
2019-05-26T08:10:37.827Z,13.13
2019-05-26T08:13:08.072Z,10.20
2019-05-26T08:15:38.510Z,10.50
2019-05-26T08:18:08.860Z,10.32
2019-05-26T08:20:40.722Z,8.85
2019-05-26T08:23:11.002Z,7.03
2019-05-26T08:25:40.901Z,9.53
2019-05-26T08:28:14.500Z,9.15
2019-05-26T08:30:45.257Z,8.83
2019-05-26T08:33:15.498Z,11.10
2019-05-26T08:35:45.869Z,8.93
2019-05-26T08:38:15.818Z,9.63
2019-05-26T08:40:46.152Z,11.15
2019-05-26T08:43:16.342Z,11.20
2019-05-26T08:45:46.641Z,9.80
2019-05-26T08:48:16.826Z,8.28
2019-05-26T08:50:47.051Z,7.87
2019-05-26T08:53:17.063Z,9.20
2019-05-26T08:55:47.204Z,8.23
2019-05-26T08:58:17.500Z,10.20
2019-05-26T09:00:47.444Z,9.08
2019-05-26T09:03:17.668Z,9.28
2019-05-26T09:05:47.834Z,10.20
2019-05-26T09:08:18.344Z,7.72
2019-05-26T09:10:48.612Z,7.80
2019-05-26T09:13:18.935Z,8.15
2019-05-26T09:15:49.101Z,9.45
2019-05-26T09:18:19.024Z,8.78
2019-05-26T09:20:49.276Z,6.75
2019-05-26T09:23:19.513Z,7.87
2019-05-26T09:25:49.742Z,8.20
2019-05-26T09:28:20.026Z,6.42
2019-05-26T09:30:57.190Z,8.25
2019-05-26T09:33:27.209Z,7.05
2019-05-26T09:35:57.610Z,7.90
2019-05-26T09:38:27.890Z,9.00
2019-05-26T09:40:57.869Z,5.25
2019-05-26T09:43:27.955Z,5.72
2019-05-26T09:45:58.217Z,6.15
2019-05-26T09:48:28.617Z,6.37
2019-05-26T09:50:59.103Z,4.25
2019-05-26T09:53:29.454Z,5.20
2019-05-26T09:56:00.526Z,3.20
2019-05-26T09:58:30.509Z,2.27
2019-05-26T10:01:01.649Z,5.30
2019-05-26T10:03:32.267Z,2.27
2019-05-26T10:06:02.922Z,2.80
2019-05-26T10:08:43.776Z,2.02
2019-05-26T10:11:21.801Z,4.87
2019-05-26T10:13:55.848Z,3.12
2019-05-26T10:16:26.078Z,1.57
2019-05-26T10:18:56.079Z,1.98
2019-05-26T10:21:25.967Z,3.17
2019-05-26T10:23:56.815Z,3.60
2019-05-26T10:26:26.977Z,4.42
2019-05-26T10:29:00.357Z,4.62
2019-05-26T10:31:29.178Z,4.92
2019-05-26T10:33:59.195Z,2.98
2019-05-26T10:36:29.551Z,4.85
2019-05-26T10:38:59.549Z,2.65
2019-05-26T10:41:29.867Z,3.15
2019-05-26T10:44:00.301Z,3.98
2019-05-26T10:46:30.161Z,5.42
2019-05-26T10:49:00.293Z,3.80
2019-05-26T10:51:30.488Z,3.05
2019-05-26T10:54:01.780Z,2.30
2019-05-26T10:56:32.041Z,2.00
2019-05-26T10:59:02.281Z,4.65
2019-05-26T11:01:32.612Z,3.50
2019-05-26T11:04:02.798Z,5.95
2019-05-26T11:06:33.081Z,1.90
2019-05-26T11:09:03.693Z,4.25
2019-05-26T11:11:33.997Z,3.85
2019-05-26T11:14:05.055Z,4.00
2019-05-26T11:16:40.992Z,6.92
2019-05-26T11:19:11.255Z,2.75
2019-05-26T11:21:41.386Z,3.05
2019-05-26T11:24:11.611Z,3.58
2019-05-26T11:26:41.628Z,2.42
2019-05-26T11:29:11.790Z,4.12
2019-05-26T11:31:41.936Z,3.20
2019-05-26T11:34:11.951Z,5.37
2019-05-26T11:36:41.854Z,4.37
2019-05-26T11:39:12.945Z,2.00
2019-05-26T11:41:42.806Z,2.40
2019-05-26T11:44:18.072Z,3.58
2019-05-26T11:46:44.897Z,2.90
2019-05-26T11:49:14.905Z,3.77
2019-05-26T11:51:44.934Z,2.10
2019-05-26T11:54:15.234Z,3.72
2019-05-26T11:56:45.464Z,6.58
2019-05-26T11:59:15.589Z,5.78
2019-05-26T12:01:45.811Z,6.65
2019-05-26T12:04:16.066Z,3.40
2019-05-26T12:06:46.308Z,5.20
2019-05-26T12:09:16.452Z,2.95
2019-05-26T12:11:46.690Z,5.62
2019-05-26T12:14:25.613Z,5.10
2019-05-26T12:16:48.726Z,2.87
2019-05-26T12:19:19.279Z,5.80
2019-05-26T12:21:49.554Z,2.58
2019-05-26T12:24:19.761Z,1.72
2019-05-26T12:26:50.138Z,3.08
2019-05-26T12:29:20.458Z,3.90
2019-05-26T12:31:50.719Z,5.53
2019-05-26T12:34:20.884Z,5.35
2019-05-26T12:36:51.167Z,4.67
2019-05-26T12:39:21.064Z,5.75
2019-05-26T12:41:51.374Z,4.75
2019-05-26T12:44:21.582Z,3.77
2019-05-26T12:46:51.803Z,3.37
2019-05-26T12:49:22.035Z,3.67
2019-05-26T12:51:53.283Z,5.58
2019-05-26T12:54:23.534Z,4.30
2019-05-26T12:56:53.732Z,4.15
2019-05-26T12:59:24.047Z,6.25
2019-05-26T13:01:54.232Z,6.17
2019-05-26T13:04:24.574Z,8.53
2019-05-26T13:06:54.819Z,5.60
2019-05-26T13:09:25.168Z,4.05
2019-05-26T13:11:55.295Z,3.25
2019-05-26T13:14:25.577Z,3.12
2019-05-26T13:16:55.904Z,3.87
2019-05-26T13:19:25.869Z,5.20
2019-05-26T13:21:55.957Z,2.98
2019-05-26T13:24:26.177Z,2.37
2019-05-26T13:26:56.436Z,4.03
2019-05-26T13:29:26.542Z,6.25
2019-05-26T13:31:56.706Z,5.37
2019-05-26T13:34:26.958Z,7.42
2019-05-26T13:36:57.276Z,3.45
2019-05-26T13:39:27.584Z,2.40
2019-05-26T13:41:57.774Z,2.83
2019-05-26T13:44:28.140Z,3.10
2019-05-26T13:47:02.096Z,3.92
2019-05-26T13:49:32.057Z,5.15
2019-05-26T13:52:02.416Z,2.12
2019-05-26T13:54:32.683Z,2.15
2019-05-26T13:57:02.920Z,4.45
2019-05-26T13:59:33.127Z,3.47
2019-05-26T14:02:03.348Z,2.83
2019-05-26T14:04:34.129Z,1.85
2019-05-26T14:07:05.142Z,1.82
2019-05-26T14:09:35.472Z,1.87
2019-05-26T14:12:06.127Z,2.80
2019-05-26T14:14:36.179Z,1.77
2019-05-26T14:17:06.881Z,1.85
2019-05-26T14:19:39.377Z,7.30
2019-05-26T14:22:09.373Z,2.47
2019-05-26T14:24:52.831Z,5.25
2019-05-26T14:27:11.499Z,2.00
2019-05-26T14:29:41.730Z,2.60
2019-05-26T14:32:11.890Z,2.08
2019-05-26T14:34:42.030Z,3.87
2019-05-26T14:37:12.399Z,2.45
2019-05-26T14:39:42.394Z,1.90
2019-05-26T14:42:12.613Z,1.62
2019-05-26T14:44:42.766Z,1.47
2019-05-26T14:47:12.889Z,2.45
2019-05-26T14:49:43.092Z,1.95
2019-05-26T14:52:13.312Z,1.85
2019-05-26T14:54:43.508Z,1.85
2019-05-26T14:57:14.663Z,1.80
2019-05-26T14:59:44.895Z,1.60
2019-05-26T15:02:15.165Z,3.02
2019-05-26T15:04:45.150Z,1.60
2019-05-26T15:07:15.474Z,1.80
2019-05-26T15:09:45.609Z,1.30
2019-05-26T15:12:15.849Z,3.92
2019-05-26T15:14:46.098Z,1.77
2019-05-26T15:17:16.288Z,1.70
2019-05-26T15:19:46.435Z,1.90
2019-05-26T15:22:16.326Z,1.20
2019-05-26T15:24:46.559Z,1.35
2019-05-26T15:27:16.896Z,1.40
2019-05-26T15:29:47.111Z,1.35
2019-05-26T15:32:18.387Z,1.90
2019-05-26T15:34:48.790Z,2.65
2019-05-26T15:37:18.948Z,4.08
2019-05-26T15:39:48.811Z,7.50
2019-05-26T15:42:20.004Z,2.77
2019-05-26T15:44:50.226Z,1.55
2019-05-26T15:47:20.147Z,4.10
2019-05-26T15:49:50.492Z,2.62
2019-05-26T15:52:25.690Z,1.65
2019-05-26T15:54:55.778Z,3.27
2019-05-26T15:57:26.082Z,2.15
2019-05-26T15:59:56.258Z,2.25
2019-05-26T16:02:26.344Z,2.60
2019-05-26T16:04:59.008Z,1.72
2019-05-26T16:07:29.311Z,4.03
2019-05-26T16:10:00.909Z,1.85
2019-05-26T16:12:32.109Z,1.67
2019-05-26T16:15:02.255Z,1.80
2019-05-26T16:17:33.902Z,2.02
2019-05-26T16:20:09.210Z,3.25
2019-05-26T16:22:41.537Z,1.85
2019-05-26T16:25:12.486Z,1.87
2019-05-26T16:27:42.719Z,1.90
2019-05-26T16:30:13.252Z,2.45
2019-05-26T16:32:43.579Z,2.15
2019-05-26T16:35:14.479Z,2.58
2019-05-26T16:37:44.812Z,3.20
2019-05-26T16:40:15.377Z,1.30
2019-05-26T16:42:45.922Z,1.50
2019-05-26T16:45:17.436Z,2.12
2019-05-26T16:47:47.439Z,1.67
2019-05-26T16:50:17.576Z,2.67
2019-05-26T16:52:54.353Z,3.40
2019-05-26T16:55:23.806Z,2.95
2019-05-26T16:57:54.042Z,3.52
2019-05-26T17:00:24.625Z,1.85
2019-05-26T17:02:54.699Z,2.98
2019-05-26T17:05:25.172Z,3.45
2019-05-26T17:07:55.321Z,2.22
2019-05-26T17:10:25.791Z,2.75
2019-05-26T17:12:57.157Z,2.20
2019-05-26T17:15:27.614Z,3.25
2019-05-26T17:17:58.135Z,2.02
2019-05-26T17:20:28.800Z,2.08
2019-05-26T17:22:59.207Z,2.67
2019-05-26T17:25:29.699Z,4.30
2019-05-26T17:27:59.869Z,3.67
2019-05-26T17:30:30.385Z,2.90
2019-05-26T17:33:00.593Z,4.50
2019-05-26T17:35:30.813Z,3.70
2019-05-26T17:38:01.332Z,2.37
2019-05-26T17:40:31.717Z,1.95
2019-05-26T17:43:01.846Z,2.05
2019-05-26T17:45:32.399Z,4.20
2019-05-26T18:08:41.663Z,2.22
2019-05-26T18:11:12.006Z,2.07
2019-05-26T18:13:41.973Z,4.62
2019-05-26T18:16:12.262Z,2.02
2019-05-26T18:18:42.241Z,1.50
2019-05-26T18:21:12.597Z,1.40
2019-05-26T18:23:42.860Z,1.72
2019-05-26T18:26:13.380Z,1.70
2019-05-26T18:28:43.835Z,2.98
2019-05-26T18:31:13.790Z,2.00
2019-05-26T18:33:43.859Z,5.67
2019-05-26T18:36:14.217Z,2.37
2019-05-26T18:38:44.519Z,1.37
2019-05-26T18:41:14.925Z,1.20
2019-05-26T18:43:45.397Z,1.67
2019-05-26T18:46:15.715Z,2.12
2019-05-26T18:48:46.085Z,1.35
2019-05-26T18:51:16.086Z,1.75
2019-05-26T18:53:46.454Z,2.62
2019-05-26T18:56:16.892Z,2.52
2019-05-26T18:58:47.301Z,1.57
2019-05-26T19:01:17.685Z,1.50
2019-05-26T19:03:47.961Z,2.17
2019-05-26T19:06:18.290Z,2.35
2019-05-26T19:08:48.351Z,2.12
2019-05-26T19:11:18.983Z,2.22
2019-05-26T19:13:49.526Z,1.55
2019-05-26T19:16:19.754Z,1.20
2019-05-26T19:18:50.010Z,2.15
2019-05-26T19:21:20.421Z,1.22
2019-05-26T19:23:50.904Z,1.77
2019-05-26T19:26:21.230Z,2.05
2019-05-26T19:28:51.243Z,1.30
2019-05-26T19:31:21.322Z,1.40
2019-05-26T19:33:51.702Z,3.08
2019-05-26T19:36:22.044Z,2.98
2019-05-26T19:38:52.308Z,3.05
2019-05-26T19:41:22.365Z,2.05
2019-05-26T19:43:52.636Z,1.30
2019-05-26T19:46:23.083Z,1.50
2019-05-26T19:48:53.134Z,1.70
2019-05-26T19:51:25.255Z,4.95
2019-05-26T19:53:55.835Z,1.67
2019-05-26T19:56:26.711Z,1.42
2019-05-26T19:58:57.099Z,1.87
2019-05-26T20:01:27.519Z,3.27
2019-05-26T20:03:57.766Z,1.47
2019-05-26T20:06:28.192Z,1.37
2019-05-26T20:08:58.447Z,1.82
2019-05-26T20:11:28.695Z,1.42
2019-05-26T20:13:58.916Z,1.50
2019-05-26T20:16:30.887Z,1.67
2019-05-26T20:19:01.480Z,5.37
2019-05-26T20:21:31.764Z,1.92
2019-05-26T20:24:01.704Z,1.65
2019-05-26T20:26:31.886Z,1.30
2019-05-26T20:29:02.134Z,2.25
2019-05-26T20:31:32.185Z,3.70
2019-05-26T20:34:02.367Z,3.12
2019-05-26T20:36:32.339Z,1.75
2019-05-26T20:39:02.703Z,2.42
2019-05-26T20:41:32.812Z,1.92
2019-05-26T20:44:03.221Z,2.65
2019-05-26T20:46:33.301Z,1.65
2019-05-26T20:49:03.475Z,1.55
2019-05-26T20:51:33.479Z,1.92
2019-05-26T20:54:03.814Z,1.98
2019-05-26T20:56:34.088Z,3.25
2019-05-26T20:59:04.563Z,2.15
2019-05-26T21:01:35.488Z,2.25
2019-05-26T21:04:05.674Z,2.27
2019-05-26T21:06:35.792Z,2.52
2019-05-26T21:09:11.097Z,2.42
2019-05-26T21:11:40.340Z,4.10
2019-05-26T21:14:10.566Z,2.05
2019-05-26T21:16:40.807Z,2.20
2019-05-26T21:19:11.105Z,2.47
2019-05-26T21:21:41.318Z,3.70
2019-05-26T21:24:11.461Z,4.25
2019-05-26T21:26:41.724Z,2.60
2019-05-26T21:29:11.786Z,2.45
2019-05-26T21:31:42.008Z,2.08
2019-05-26T21:34:12.191Z,2.33
2019-05-26T21:36:44.805Z,3.57
2019-05-26T21:39:15.054Z,5.87
2019-05-26T21:41:45.266Z,2.15
2019-05-26T21:44:15.517Z,4.37
2019-05-26T21:46:45.864Z,4.70
2019-05-26T21:49:15.876Z,2.12
2019-05-26T21:51:46.073Z,2.98
2019-05-26T21:54:16.256Z,4.20
2019-05-26T21:56:46.470Z,2.02
2019-05-26T21:59:16.713Z,2.75
2019-05-26T22:01:46.726Z,4.08
2019-05-26T22:04:16.937Z,2.45
2019-05-26T22:06:47.094Z,3.12
2019-05-26T22:09:17.317Z,4.08
2019-05-26T22:11:47.958Z,2.52
2019-05-26T22:14:18.321Z,3.40
2019-05-26T22:16:48.550Z,3.95
2019-05-26T22:19:18.857Z,5.50
2019-05-26T22:21:48.787Z,5.87
2019-05-26T22:24:19.053Z,4.17
2019-05-26T22:26:49.315Z,4.47
2019-05-26T22:29:19.606Z,4.45
2019-05-26T22:31:49.876Z,3.22
2019-05-26T22:34:19.983Z,3.02
2019-05-26T22:36:50.253Z,3.20
2019-05-26T22:39:21.420Z,3.35
2019-05-26T22:41:51.844Z,4.17
2019-05-26T22:44:21.734Z,4.08
2019-05-26T22:46:52.099Z,3.77
2019-05-26T22:49:22.352Z,4.72
2019-05-26T22:51:53.011Z,5.50
2019-05-26T22:54:23.039Z,5.47
2019-05-26T22:56:53.085Z,4.20
2019-05-26T22:59:22.927Z,5.17
2019-05-26T23:01:53.286Z,4.95
2019-05-26T23:04:23.598Z,4.00
2019-05-26T23:06:53.857Z,4.30
2019-05-26T23:09:24.112Z,3.35
2019-05-26T23:11:54.245Z,5.62
2019-05-26T23:14:24.146Z,3.85
2019-05-26T23:16:54.489Z,3.00
2019-05-26T23:19:24.756Z,3.15
2019-05-26T23:21:54.914Z,6.65
2019-05-26T23:24:24.748Z,3.65
2019-05-26T23:26:54.883Z,4.15
2019-05-26T23:29:25.153Z,6.72
2019-05-26T23:31:55.274Z,4.33
2019-05-26T23:34:25.557Z,4.25
2019-05-26T23:36:55.791Z,3.42
2019-05-26T23:39:25.620Z,5.58
2019-05-26T23:41:55.784Z,5.22
2019-05-26T23:44:26.083Z,4.50
2019-05-26T23:46:56.244Z,4.47
2019-05-26T23:49:26.382Z,2.30
2019-05-26T23:51:56.490Z,2.40
2019-05-26T23:54:26.753Z,5.75
2019-05-26T23:56:56.920Z,5.87
2019-05-26T23:59:27.064Z,5.85
